Time;durP1;ratioP1;P1;durP2;ratioP2;P2;SDS_P1;SDS_P2;PMS_P1;PMS_P2;Temp;Humidity;BMP_temperature;BMP_pressure;BME280_temperature;BME280_humidity;BME280_pressure;Samples;Min_cycle;Max_cycle;Signal;HPM_P1;HPM_P2
2022/08/28 00:01:00;;;;;;;1.93;1.73;;;;;;;26.57;38.77;94897.66;5057147;28;20202;-66
2022/08/28 00:03:27;;;;;;;0.60;0.60;;;;;;;26.81;38.03;94890.06;5055742;28;20270;-65
2022/08/28 00:05:56;;;;;;;0.60;0.60;;;;;;;26.71;37.96;94897.94;5029849;28;20569;-67
2022/08/28 00:08:23;;;;;;;0.50;0.50;;;;;;;26.93;37.47;94900.63;5042138;28;20238;-66
2022/08/28 00:10:50;;;;;;;0.70;0.70;;;;;;;26.84;37.91;94902.78;5068056;28;20594;-65
2022/08/28 00:13:20;;;;;;;0.50;0.50;;;;;;;27.08;37.48;94898.94;5059265;28;20196;-65
2022/08/28 00:15:49;;;;;;;1.83;1.73;;;;;;;26.77;38.19;94902.66;5046292;28;20717;-61
2022/08/28 00:18:17;;;;;;;1.33;1.23;;;;;;;27.02;37.79;94903.09;5039456;28;20609;-63
2022/08/28 00:20:45;;;;;;;2.30;1.53;;;;;;;27.01;37.73;94905.00;5061716;28;20221;-65
2022/08/28 00:23:12;;;;;;;2.07;1.87;;;;;;;27.10;37.73;94912.06;5045766;28;20204;-63
2022/08/28 00:25:39;;;;;;;5.03;4.47;;;;;;;26.97;37.49;94901.47;5041253;28;20227;-67
2022/08/28 00:28:08;;;;;;;6.03;5.13;;;;;;;27.13;36.88;94904.06;5069691;28;20207;-65
2022/08/28 00:30:42;;;;;;;4.13;3.70;;;;;;;27.00;37.64;94898.06;5043541;28;20233;-62
2022/08/28 00:33:21;;;;;;;1.80;1.70;;;;;;;27.06;37.83;94893.19;5041068;28;20207;-66
2022/08/28 00:35:49;;;;;;;4.80;3.30;;;;;;;27.11;37.69;94900.16;5041852;28;20216;-64
2022/08/28 00:38:18;;;;;;;2.40;2.20;;;;;;;26.48;38.40;94905.91;5056872;28;20205;-63
2022/08/28 00:40:49;;;;;;;2.60;2.40;;;;;;;26.78;37.77;94901.53;5041973;28;20207;-64
2022/08/28 00:43:34;;;;;;;0.83;0.83;;;;;;;26.47;37.84;94904.38;5029692;28;20269;-60
2022/08/28 00:46:03;;;;;;;1.60;1.50;;;;;;;26.48;38.04;94905.13;5042998;28;20223;-64
2022/08/28 00:48:30;;;;;;;0.70;0.70;;;;;;;26.42;37.84;94901.19;5029012;28;20193;-61
2022/08/28 00:53:43;;;;;;;0.70;0.70;;;;;;;26.55;37.67;94895.28;5035652;28;20185;-68
2022/08/28 00:56:14;;;;;;;0.60;0.60;;;;;;;26.55;37.80;94900.66;5042562;28;20197;-64
2022/08/28 00:58:45;;;;;;;0.20;0.20;;;;;;;26.53;37.71;94902.94;5061964;28;20647;-65
2022/08/28 01:01:13;;;;;;;0.47;0.47;;;;;;;26.52;38.33;94912.13;5051331;28;20212;-68
2022/08/28 01:03:40;;;;;;;0.40;0.40;;;;;;;26.67;37.78;94913.97;5059293;28;20212;-67
2022/08/28 01:06:08;;;;;;;1.00;0.60;;;;;;;26.73;37.99;94912.56;5053645;28;20791;-68
2022/08/28 01:08:37;;;;;;;2.30;1.00;;;;;;;26.43;38.31;94914.28;5058168;28;20579;-67
2022/08/28 01:11:07;;;;;;;0.30;0.30;;;;;;;26.54;38.22;94909.88;5041602;28;20200;-66
2022/08/28 01:13:36;;;;;;;1.03;0.93;;;;;;;26.58;38.67;94904.56;5056014;28;20211;-67
2022/08/28 01:16:05;;;;;;;1.07;1.03;;;;;;;26.58;38.90;94905.34;5057524;28;20266;-64
2022/08/28 01:18:32;;;;;;;1.60;1.33;;;;;;;26.62;38.61;94906.19;5052390;28;20192;-63
2022/08/28 01:21:22;;;;;;;0.93;0.93;;;;;;;26.62;38.34;94906.19;5064891;28;20201;-67
2022/08/28 01:23:52;;;;;;;2.73;1.17;;;;;;;26.23;39.38;94904.66;5061888;28;20319;-62
2022/08/28 01:26:19;;;;;;;1.17;0.90;;;;;;;26.27;39.04;94910.09;5068413;28;20199;-65
2022/08/28 01:28:46;;;;;;;1.30;1.20;;;;;;;25.65;40.23;94911.06;5045267;28;20259;-65
2022/08/28 01:31:15;;;;;;;1.43;1.33;;;;;;;25.98;39.67;94908.72;5060715;28;20250;-65
2022/08/28 01:33:45;;;;;;;2.30;1.53;;;;;;;26.18;39.47;94907.63;5047883;28;20291;-66
2022/08/28 01:36:13;;;;;;;2.83;2.03;;;;;;;26.17;39.82;94916.06;5051419;28;20257;-64
2022/08/28 01:38:42;;;;;;;0.83;0.83;;;;;;;26.12;39.94;94909.03;5049680;28;20745;-66
2022/08/28 01:41:10;;;;;;;11.60;2.33;;;;;;;25.92;39.99;94912.81;5058379;28;20226;-65
2022/08/28 01:43:39;;;;;;;1.30;1.27;;;;;;;26.04;40.02;94912.69;5048363;28;20220;-62
2022/08/28 01:46:08;;;;;;;5.73;2.20;;;;;;;26.18;39.69;94906.84;5062611;28;20286;-63
2022/08/28 01:48:39;;;;;;;0.50;0.50;;;;;;;26.10;39.74;94911.28;5055791;28;20787;-62
2022/08/28 01:51:07;;;;;;;1.67;0.73;;;;;;;26.12;39.55;94909.03;5041440;28;20675;-64
2022/08/28 01:53:34;;;;;;;1.40;1.30;;;;;;;26.11;39.61;94907.50;5052265;28;20192;-65
2022/08/28 01:56:06;;;;;;;0.60;0.60;;;;;;;26.20;39.49;94913.44;5048314;28;20201;-68
2022/08/28 01:58:34;;;;;;;3.23;0.87;;;;;;;26.20;39.30;94910.75;5056466;28;20287;-67
2022/08/28 02:01:16;;;;;;;0.70;0.70;;;;;;;26.18;39.50;94918.38;5046549;28;20196;-63
2022/08/28 02:03:43;;;;;;;0.77;0.77;;;;;;;26.19;39.29;94903.81;5054572;28;20298;-64
2022/08/28 02:06:11;;;;;;;0.70;0.63;;;;;;;26.22;39.23;94907.72;5047782;28;20245;-62
2022/08/28 02:08:38;;;;;;;2.13;0.90;;;;;;;26.09;39.57;94915.13;5071140;28;20195;-65
2022/08/28 02:11:07;;;;;;;1.13;0.70;;;;;;;26.19;39.75;94919.91;5051211;28;20641;-63
2022/08/28 02:13:36;;;;;;;1.07;1.03;;;;;;;26.30;39.63;94914.75;5051766;28;20242;-67
2022/08/28 02:16:05;;;;;;;0.87;0.60;;;;;;;26.01;39.84;94905.31;5060406;28;20201;-61
2022/08/28 02:18:33;;;;;;;0.57;0.57;;;;;;;25.98;40.13;94916.78;5043885;28;20212;-67
2022/08/28 02:21:00;;;;;;;0.60;0.60;;;;;;;26.06;39.68;94915.81;5041926;28;20714;-65
2022/08/28 02:23:27;;;;;;;2.60;2.17;;;;;;;25.97;39.86;94915.22;5071771;28;20200;-61
2022/08/28 02:25:54;;;;;;;0.90;0.90;;;;;;;25.49;40.79;94902.25;5071293;28;20448;-65
2022/08/28 02:28:20;;;;;;;2.57;2.37;;;;;;;25.71;40.38;94920.41;5054794;28;20216;-65
2022/08/28 02:30:47;;;;;;;51.30;36.10;;;;;;;25.64;40.28;94914.84;5059917;28;20284;-63
2022/08/28 02:33:15;;;;;;;57.83;35.27;;;;;;;25.74;40.24;94914.31;5044961;28;20633;-69
2022/08/28 02:35:42;;;;;;;41.73;33.27;;;;;;;25.87;40.05;94918.44;5044521;28;20258;-66
2022/08/28 02:38:09;;;;;;;13.40;9.90;;;;;;;25.97;40.01;94915.22;5061559;28;20679;-64
2022/08/28 02:40:37;;;;;;;27.27;19.53;;;;;;;25.59;40.49;94917.81;5055080;28;20192;-62
2022/08/28 02:43:04;;;;;;;22.73;18.17;;;;;;;25.67;40.94;94919.53;5035671;28;20707;-66
2022/08/28 02:45:31;;;;;;;19.87;15.73;;;;;;;25.82;40.23;94916.81;5051027;28;20219;-63
2022/08/28 02:48:00;;;;;;;21.20;15.33;;;;;;;25.80;40.62;94923.69;5070694;28;20196;-63
2022/08/28 02:50:28;;;;;;;16.93;11.37;;;;;;;25.65;40.83;94922.59;5055606;28;20726;-62
2022/08/28 02:52:56;;;;;;;14.73;11.27;;;;;;;25.82;40.83;94924.09;5043866;28;20668;-64
2022/08/28 02:55:24;;;;;;;14.63;10.33;;;;;;;25.68;40.77;94918.41;5058192;28;20208;-63
2022/08/28 02:57:53;;;;;;;11.87;10.60;;;;;;;25.47;41.17;94920.63;5039728;28;20215;-64
2022/08/28 03:00:23;;;;;;;9.70;7.10;;;;;;;25.45;41.18;94920.97;5063148;28;20219;-65
2022/08/28 03:02:51;;;;;;;5.33;3.93;;;;;;;25.45;41.10;94928.22;5039284;28;20256;-64
2022/08/28 03:05:21;;;;;;;0.90;0.90;;;;;;;24.66;42.45;94930.03;5065756;28;20214;-64
2022/08/28 03:07:49;;;;;;;2.80;2.60;;;;;;;25.09;41.71;94919.28;5055957;28;20628;-64
2022/08/28 03:10:15;;;;;;;6.90;2.40;;;;;;;25.23;41.48;94924.22;5044871;28;20208;-64
2022/08/28 03:12:42;;;;;;;0.60;0.60;;;;;;;24.27;43.12;94928.19;5059059;28;20235;-65
2022/08/28 03:15:11;;;;;;;2.07;0.93;;;;;;;24.49;42.94;94934.94;5055317;28;20282;-62
2022/08/28 03:17:38;;;;;;;0.87;0.70;;;;;;;24.97;41.59;94924.75;5062395;28;20197;-63
2022/08/28 03:20:10;;;;;;;1.17;1.03;;;;;;;25.01;41.53;94936.34;5042251;28;20998;-64
2022/08/28 03:25:23;;;;;;;0.83;0.83;;;;;;;24.83;41.92;94937.00;5055005;28;20219;-64
2022/08/28 03:27:51;;;;;;;1.50;1.40;;;;;;;24.90;41.57;94921.09;5066257;28;20655;-64
2022/08/28 03:30:18;;;;;;;1.00;1.00;;;;;;;24.98;41.96;94934.34;5050986;28;20220;-62
2022/08/28 03:32:45;;;;;;;1.50;1.40;;;;;;;24.97;42.06;94938.16;5064888;28;20205;-61
2022/08/28 03:35:13;;;;;;;0.83;0.83;;;;;;;25.07;41.99;94934.94;5059641;28;20200;-66
2022/08/28 03:37:40;;;;;;;0.97;0.93;;;;;;;25.06;41.99;94928.03;5040801;28;20196;-64
2022/08/28 03:40:08;;;;;;;0.60;0.60;;;;;;;25.09;42.01;94938.06;5057918;28;20290;-64
2022/08/28 03:42:35;;;;;;;1.93;1.80;;;;;;;24.90;42.15;94935.28;5056240;28;20671;-63
2022/08/28 03:45:04;;;;;;;1.07;1.03;;;;;;;24.98;42.24;94947.75;5058461;28;20331;-66
2022/08/28 03:47:31;;;;;;;1.57;1.47;;;;;;;25.01;42.03;94947.06;5042685;28;20236;-62
2022/08/28 03:49:59;;;;;;;1.33;1.27;;;;;;;24.97;42.24;94954.25;5045775;28;20189;-62
2022/08/28 03:52:26;;;;;;;0.63;0.53;;;;;;;24.92;42.29;94953.72;5030144;28;20240;-63
2022/08/28 03:54:52;;;;;;;3.20;2.53;;;;;;;25.01;42.44;94960.47;5046120;28;20261;-65
2022/08/28 03:57:21;;;;;;;1.10;1.10;;;;;;;24.99;42.36;94949.31;5038057;28;20193;-63
2022/08/28 03:59:50;;;;;;;0.70;0.70;;;;;;;24.89;42.55;94960.53;5051864;28;20214;-64
2022/08/28 04:02:19;;;;;;;0.57;0.57;;;;;;;24.85;42.78;94970.38;5054773;28;20740;-63
2022/08/28 04:04:49;;;;;;;1.47;1.17;;;;;;;24.81;42.29;94968.72;5070717;28;20645;-63
2022/08/28 04:07:17;;;;;;;0.87;0.87;;;;;;;24.93;42.16;94977.50;5053636;28;20639;-64
2022/08/28 04:09:45;;;;;;;0.80;0.80;;;;;;;24.92;42.41;94970.59;5059969;28;20202;-63
2022/08/28 04:12:13;;;;;;;0.30;0.30;;;;;;;24.79;42.60;94966.41;5068364;28;20214;-64
2022/08/28 04:14:39;;;;;;;0.67;0.57;;;;;;;24.70;42.53;94973.81;5057450;28;20200;-65
2022/08/28 04:17:07;;;;;;;2.87;1.70;;;;;;;24.68;42.59;94976.03;5055516;28;20204;-62
2022/08/28 04:19:34;;;;;;;1.60;1.27;;;;;;;24.79;42.44;94979.81;5035770;28;20193;-63
2022/08/28 04:22:01;;;;;;;1.27;1.03;;;;;;;24.91;42.38;94982.41;5061837;28;20243;-63
2022/08/28 04:24:28;;;;;;;0.83;0.83;;;;;;;24.83;42.08;94977.22;5054855;28;20281;-63
2022/08/28 04:26:55;;;;;;;1.00;0.97;;;;;;;24.69;42.77;94988.28;5059137;28;20207;-66
2022/08/28 04:29:22;;;;;;;3.80;1.40;;;;;;;24.81;42.53;94985.59;5052541;28;20192;-63
2022/08/28 04:31:49;;;;;;;0.73;0.73;;;;;;;24.88;42.70;94991.16;5060327;28;20208;-63
2022/08/28 04:34:16;;;;;;;1.23;1.17;;;;;;;24.89;42.31;94999.94;5064358;28;20674;-62
2022/08/28 04:36:45;;;;;;;0.93;0.93;;;;;;;25.03;42.10;94995.78;5062055;28;20200;-65
2022/08/28 04:39:12;;;;;;;0.83;0.83;;;;;;;25.12;42.32;94994.81;5049318;28;20204;-62
2022/08/28 04:41:40;;;;;;;0.47;0.47;;;;;;;24.96;42.54;95003.59;5041958;28;20199;-63
2022/08/28 04:44:07;;;;;;;1.03;1.03;;;;;;;25.02;42.28;95006.81;5068721;28;20232;-64
2022/08/28 04:46:37;;;;;;;0.60;0.60;;;;;;;24.99;42.63;95004.81;5068856;28;20219;-62
2022/08/28 04:49:04;;;;;;;0.87;0.87;;;;;;;25.00;42.30;94999.13;5047000;28;20579;-63
2022/08/28 04:51:32;;;;;;;0.83;0.83;;;;;;;25.01;42.01;95005.28;5034719;28;20543;-64
2022/08/28 04:54:00;;;;;;;0.60;0.60;;;;;;;25.01;42.60;95000.69;5068847;28;20274;-65
2022/08/28 04:56:27;;;;;;;0.40;0.40;;;;;;;25.15;42.39;95005.63;5039028;28;20652;-63
2022/08/28 04:58:54;;;;;;;0.40;0.40;;;;;;;25.22;42.05;95003.13;5061473;28;20239;-63
2022/08/28 05:01:23;;;;;;;6.93;1.67;;;;;;;25.18;42.63;95014.91;5049048;28;20262;-62
2022/08/28 05:03:57;;;;;;;0.10;0.10;;;;;;;25.35;41.95;95018.03;5045945;28;20204;-66
2022/08/28 05:06:28;;;;;;;1.77;1.67;;;;;;;25.32;42.01;95015.25;5048724;28;20682;-64
2022/08/28 05:09:00;;;;;;;0.40;0.40;;;;;;;25.37;41.50;95006.94;5052323;28;20206;-66
2022/08/28 05:11:30;;;;;;;0.90;0.87;;;;;;;25.11;42.11;95015.47;5058808;28;20204;-65
2022/08/28 05:14:03;;;;;;;0.93;0.93;;;;;;;25.19;42.43;95003.03;5066478;28;20659;-64
2022/08/28 05:16:31;;;;;;;0.53;0.53;;;;;;;25.26;42.34;95019.31;5048566;28;20203;-64
2022/08/28 05:19:00;;;;;;;1.27;1.17;;;;;;;25.48;41.89;95010.69;5047671;28;20269;-63
2022/08/28 05:21:27;;;;;;;0.47;0.47;;;;;;;25.55;42.09;95010.88;5049016;28;20260;-65
2022/08/28 05:23:56;;;;;;;1.47;0.87;;;;;;;25.70;41.58;95012.78;5062478;28;20199;-64
2022/08/28 05:26:24;;;;;;;1.57;1.30;;;;;;;25.55;41.37;95008.19;5041508;28;20284;-63
2022/08/28 05:28:54;;;;;;;0.73;0.73;;;;;;;25.58;41.32;95021.69;5068687;28;20694;-64
2022/08/28 05:31:23;;;;;;;0.50;0.50;;;;;;;25.49;41.72;95020.31;5029407;28;20181;-65
2022/08/28 05:33:51;;;;;;;1.20;1.10;;;;;;;25.60;41.34;95016.00;5039399;28;20197;-66
2022/08/28 05:36:21;;;;;;;1.50;1.40;;;;;;;25.74;42.01;95027.06;5029697;28;20240;-66
2022/08/28 05:38:55;;;;;;;5.80;1.87;;;;;;;25.79;41.94;95024.09;5036200;28;20700;-66
2022/08/28 05:41:24;;;;;;;1.47;0.87;;;;;;;25.83;41.98;95024.97;5061388;28;20593;-67
2022/08/28 05:43:52;;;;;;;0.40;0.40;;;;;;;25.91;41.54;95032.09;5056887;28;20733;-67
2022/08/28 05:46:20;;;;;;;2.40;1.43;;;;;;;24.84;44.03;95038.50;5034358;28;20258;-66
2022/08/28 05:48:48;;;;;;;2.73;2.03;;;;;;;24.90;44.00;95031.81;5036626;28;20219;-64
2022/08/28 05:51:19;;;;;;;0.60;0.60;;;;;;;25.52;42.65;95025.00;5022968;28;20209;-69
2022/08/28 05:53:48;;;;;;;2.17;1.07;;;;;;;25.86;41.56;95029.63;5049941;28;20571;-65
2022/08/28 05:56:22;;;;;;;0.40;0.40;;;;;;;25.68;42.34;95026.53;5038282;28;20197;-66
2022/08/28 05:58:49;;;;;;;1.87;1.53;;;;;;;25.97;41.65;95025.28;5050894;28;20825;-68
2022/08/28 06:01:19;;;;;;;0.83;0.83;;;;;;;25.79;41.92;95029.47;5039733;28;20288;-67
2022/08/28 06:04:23;;;;;;;0.93;0.83;;;;;;;26.21;40.70;95025.13;5060215;28;20206;-65
2022/08/28 06:06:50;;;;;;;0.23;0.23;;;;;;;25.89;41.64;95018.22;5034235;28;20310;-65
2022/08/28 06:09:20;;;;;;;9.10;1.03;;;;;;;25.79;42.03;95018.75;5056140;28;20196;-67
2022/08/28 06:11:57;;;;;;;2.33;1.27;;;;;;;26.18;40.81;95025.81;5054881;28;20680;-67
2022/08/28 06:14:25;;;;;;;0.97;0.87;;;;;;;25.89;41.76;95026.28;5053113;28;20215;-70
2022/08/28 06:16:54;;;;;;;1.27;0.87;;;;;;;25.22;43.14;95026.50;5033419;28;20701;-69
2022/08/28 06:19:23;;;;;;;3.17;1.93;;;;;;;25.96;42.38;95034.50;5055779;28;20192;-67
2022/08/28 06:21:54;;;;;;;1.30;1.20;;;;;;;26.34;41.10;95029.25;5051636;28;20291;-67
2022/08/28 06:24:21;;;;;;;0.93;0.93;;;;;;;26.24;41.63;95032.47;5061203;28;20231;-67
2022/08/28 06:26:48;;;;;;;8.53;3.07;;;;;;;25.98;42.48;95032.25;5053404;28;20217;-68
2022/08/28 06:29:17;;;;;;;1.43;1.37;;;;;;;26.69;41.05;95018.47;5055261;28;20655;-70
2022/08/28 06:31:52;;;;;;;0.77;0.77;;;;;;;26.64;40.68;95019.50;5034331;28;20668;-68
2022/08/28 06:34:19;;;;;;;1.90;1.80;;;;;;;26.57;41.97;95026.66;5050316;28;20202;-69
2022/08/28 06:36:46;;;;;;;0.70;0.70;;;;;;;26.78;41.59;95035.97;5049047;28;20201;-68
2022/08/28 06:39:20;;;;;;;0.83;0.70;;;;;;;27.37;39.53;95032.09;5048434;28;20290;-70
2022/08/28 06:41:47;;;;;;;0.70;0.70;;;;;;;27.51;39.31;95037.72;5035551;28;20205;-69
2022/08/28 06:44:18;;;;;;;0.63;0.63;;;;;;;26.95;41.46;95035.50;5045800;28;20228;-70
2022/08/28 06:46:48;;;;;;;4.53;4.13;;;;;;;27.47;41.08;95036.88;5060299;28;20269;-69
2022/08/28 06:49:16;;;;;;;7.47;3.43;;;;;;;27.69;39.09;95030.72;5049663;28;20655;-68
2022/08/28 06:51:43;;;;;;;1.07;1.07;;;;;;;27.25;40.88;95034.91;5032760;28;20200;-66
2022/08/28 06:54:10;;;;;;;1.80;1.37;;;;;;;27.50;39.24;95030.78;5064410;28;20200;-67
2022/08/28 06:56:37;;;;;;;0.97;0.97;;;;;;;27.30;39.28;95031.94;5033907;28;20197;-67
2022/08/28 06:59:04;;;;;;;0.57;0.57;;;;;;;27.38;40.43;95039.03;5032336;28;20647;-67
2022/08/28 07:01:36;;;;;;;1.43;1.03;;;;;;;27.18;39.78;95029.41;5049666;28;20580;-70
2022/08/28 07:04:06;;;;;;;1.03;1.03;;;;;;;27.60;39.61;95030.19;5051055;28;20209;-68
2022/08/28 07:06:39;;;;;;;0.73;0.73;;;;;;;27.78;38.83;95031.25;5043410;28;20231;-68
2022/08/28 07:09:10;;;;;;;2.07;1.10;;;;;;;27.79;38.87;95022.03;5043149;28;20204;-66
2022/08/28 07:11:39;;;;;;;0.60;0.53;;;;;;;28.02;39.33;95030.88;5051683;28;20202;-72
2022/08/28 07:14:06;;;;;;;0.73;0.73;;;;;;;28.32;38.39;95026.31;5057603;28;20196;-65
2022/08/28 07:16:36;;;;;;;8.17;6.70;;;;;;;28.70;37.65;95023.38;5040970;28;20291;-67
2022/08/28 07:19:10;;;;;;;3.07;2.27;;;;;;;28.04;37.83;95022.44;5026576;28;20543;-68
2022/08/28 07:21:40;;;;;;;2.97;1.47;;;;;;;28.32;39.54;95029.00;5049743;28;20199;-67
2022/08/28 07:24:10;;;;;;;3.57;2.13;;;;;;;28.73;38.29;95022.66;5061049;28;20199;-67
2022/08/28 07:26:39;;;;;;;1.33;1.10;;;;;;;28.74;37.27;95024.19;5052314;28;20216;-70
2022/08/28 07:29:07;;;;;;;4.73;2.50;;;;;;;28.44;38.75;95026.09;5054299;28;20662;-69
2022/08/28 07:31:42;;;;;;;1.07;1.03;;;;;;;28.43;38.31;95024.53;5033619;28;20189;-70
2022/08/28 07:34:11;;;;;;;1.90;1.67;;;;;;;28.52;39.11;95019.69;5023159;28;20757;-71
2022/08/28 07:36:38;;;;;;;47.10;1.97;;;;;;;28.80;37.58;94994.97;5046141;28;20246;-71
2022/08/28 07:39:05;;;;;;;1.60;1.50;;;;;;;28.80;38.07;95011.16;5024513;28;20267;-71
2022/08/28 07:41:36;;;;;;;2.53;1.93;;;;;;;29.30;36.24;95007.13;5044414;28;20197;-71
2022/08/28 07:46:56;;;;;;;0.77;0.77;;;;;;;29.04;35.39;95004.50;5030084;28;20375;-74
2022/08/28 07:49:24;;;;;;;1.00;0.97;;;;;;;29.82;34.79;95001.41;5048696;28;20210;-74
2022/08/28 07:51:51;;;;;;;2.60;1.60;;;;;;;29.81;35.57;94999.88;5025041;28;20200;-71
2022/08/28 07:54:22;;;;;;;0.80;0.80;;;;;;;29.69;34.38;95002.84;5042594;28;20291;-72
2022/08/28 07:56:50;;;;;;;2.37;1.40;;;;;;;29.78;34.37;95000.63;5022850;28;20201;-69
2022/08/28 07:59:18;;;;;;;4.37;2.57;;;;;;;29.75;35.38;94995.97;5019186;28;20265;-72
2022/08/28 08:01:46;;;;;;;1.40;1.00;;;;;;;29.79;34.87;95002.97;5019927;28;20232;-75
2022/08/28 08:04:15;;;;;;;5.60;3.50;;;;;;;30.18;33.89;94997.84;5020644;28;20710;-73
2022/08/28 08:06:42;;;;;;;1.87;1.43;;;;;;;30.41;33.56;95001.06;5045350;28;20977;-73
2022/08/28 08:09:12;;;;;;;2.73;0.80;;;;;;;30.52;33.00;95006.53;5025211;28;20200;-70
2022/08/28 08:11:39;;;;;;;0.93;0.70;;;;;;;30.63;33.24;95007.34;5027594;28;20208;-64
2022/08/28 08:14:06;;;;;;;1.73;1.60;;;;;;;30.46;34.75;95003.41;5035560;28;20232;-63
2022/08/28 08:16:37;;;;;;;0.87;0.87;;;;;;;30.69;33.07;94998.50;5043915;28;20219;-63
2022/08/28 08:19:08;;;;;;;0.90;0.90;;;;;;;30.52;34.51;94995.72;5047079;28;20885;-62
2022/08/28 08:21:36;;;;;;;1.23;1.00;;;;;;;30.17;32.81;95001.66;5032736;28;20593;-64
2022/08/28 08:24:03;;;;;;;1.23;1.13;;;;;;;29.80;34.28;95004.50;5046636;28;20207;-64
2022/08/28 08:26:31;;;;;;;4.27;1.53;;;;;;;30.16;35.69;95000.13;5034306;28;20253;-62
2022/08/28 08:28:59;;;;;;;1.43;1.33;;;;;;;30.44;32.46;94997.59;5031156;28;20200;-62
2022/08/28 08:31:31;;;;;;;0.50;0.50;;;;;;;30.92;32.82;95006.34;5056727;28;20199;-63
2022/08/28 08:34:00;;;;;;;1.73;1.63;;;;;;;30.72;32.74;94995.03;5049002;28;20196;-64
2022/08/28 08:36:29;;;;;;;0.60;0.60;;;;;;;30.88;33.43;94998.22;5050023;28;20189;-65
2022/08/28 08:38:57;;;;;;;1.83;1.73;;;;;;;30.88;32.45;94988.56;5028952;28;20295;-64
2022/08/28 08:41:46;;;;;;;3.07;2.07;;;;;;;30.21;32.95;94991.66;5036876;28;20801;-64
2022/08/28 08:44:39;;;;;;;0.67;0.43;;;;;;;30.23;33.27;94983.97;5020193;28;20306;-63
2022/08/28 08:47:27;;;;;;;4.50;2.23;;;;;;;31.15;32.44;94984.38;5034905;28;20702;-62
2022/08/28 08:50:02;;;;;;;0.73;0.73;;;;;;;30.17;33.16;94996.25;5053378;28;20727;-63
2022/08/28 08:52:35;;;;;;;0.70;0.70;;;;;;;31.04;31.94;94983.56;5030760;28;20290;-63
2022/08/28 08:55:13;;;;;;;0.67;0.67;;;;;;;30.76;31.33;94984.22;5042618;28;20252;-62
2022/08/28 08:57:43;;;;;;;0.50;0.50;;;;;;;30.88;31.29;94975.03;5019711;28;20201;-63
2022/08/28 09:00:15;;;;;;;2.63;0.80;;;;;;;31.08;30.81;94982.41;5035716;28;20213;-63
2022/08/28 09:02:59;;;;;;;0.80;0.80;;;;;;;31.35;31.76;94985.56;5033255;28;20239;-61
2022/08/28 09:05:40;;;;;;;1.30;1.20;;;;;;;31.75;31.47;94980.56;5048336;28;20310;-61
2022/08/28 09:08:14;;;;;;;0.57;0.57;;;;;;;32.27;30.90;94984.41;5040037;28;20651;-63
2022/08/28 09:10:48;;;;;;;0.50;0.50;;;;;;;32.65;29.60;94983.56;5053014;28;20283;-63
2022/08/28 09:13:25;;;;;;;0.70;0.70;;;;;;;32.20;31.01;94989.09;5019479;28;20201;-64
2022/08/28 09:15:52;;;;;;;2.07;1.47;;;;;;;32.72;29.65;94982.75;5055498;28;20298;-63
2022/08/28 09:18:20;;;;;;;0.90;0.90;;;;;;;32.73;29.53;94979.66;5049756;28;20666;-65
2022/08/28 09:20:57;;;;;;;1.63;1.53;;;;;;;32.71;30.61;94981.22;5051353;28;20195;-64
2022/08/28 09:23:26;;;;;;;2.90;1.07;;;;;;;32.86;28.32;94979.22;5029419;28;20211;-62
2022/08/28 09:26:08;;;;;;;4.13;1.73;;;;;;;32.97;29.87;94977.25;5041786;28;20703;-62
2022/08/28 09:28:40;;;;;;;1.53;0.93;;;;;;;33.22;28.79;94972.44;5048406;28;20670;-63
2022/08/28 09:31:30;;;;;;;1.20;1.10;;;;;;;33.67;27.55;94972.16;5042117;28;20199;-62
2022/08/28 09:34:15;;;;;;;2.57;1.57;;;;;;;33.82;27.25;94978.22;5041327;28;20744;-64
2022/08/28 09:36:42;;;;;;;0.70;0.70;;;;;;;33.82;26.90;94964.66;5033457;28;20188;-63
2022/08/28 09:39:11;;;;;;;0.50;0.50;;;;;;;34.10;26.88;94966.38;5032449;28;20197;-63
2022/08/28 09:44:59;;;;;;;1.83;1.20;;;;;;;33.26;26.41;94963.13;5056160;28;20199;-63
2022/08/28 09:47:34;;;;;;;0.80;0.80;;;;;;;33.38;26.73;94961.84;5044265;28;20290;-64
2022/08/28 09:50:23;;;;;;;0.50;0.50;;;;;;;33.54;26.57;94957.50;5019515;28;20203;-65
2022/08/28 09:52:52;;;;;;;5.50;1.87;;;;;;;33.98;27.47;94951.31;5045901;28;20204;-65
2022/08/28 09:55:32;;;;;;;1.93;0.83;;;;;;;34.16;26.73;94949.19;5035990;28;20223;-64
2022/08/28 09:58:00;;;;;;;0.80;0.80;;;;;;;33.46;26.53;94952.53;5039869;28;20196;-64
2022/08/28 10:00:32;;;;;;;0.83;0.83;;;;;;;34.09;26.67;94938.38;5025292;28;20629;-63
2022/08/28 10:03:13;;;;;;;1.30;1.20;;;;;;;34.88;26.11;94944.50;5038381;28;20215;-63
2022/08/28 10:05:59;;;;;;;1.30;1.20;;;;;;;34.96;25.65;94937.81;5043994;28;20208;-64
2022/08/28 10:08:56;;;;;;;0.40;0.40;;;;;;;35.20;26.00;94940.16;5045737;28;20763;-63
2022/08/28 10:11:32;;;;;;;1.10;0.93;;;;;;;34.87;26.52;94943.75;5046378;28;20520;-64
2022/08/28 10:14:30;;;;;;;1.43;1.20;;;;;;;35.01;26.11;94929.19;5044066;28;20196;-63
2022/08/28 10:17:12;;;;;;;0.93;0.93;;;;;;;34.49;26.57;94934.88;5045817;28;20256;-64
2022/08/28 10:19:57;;;;;;;2.37;1.23;;;;;;;35.28;25.31;94929.94;5032763;28;20241;-66
2022/08/28 10:22:30;;;;;;;0.83;0.83;;;;;;;35.13;25.59;94928.63;5057839;28;20234;-63
2022/08/28 10:25:22;;;;;;;2.83;2.53;;;;;;;35.69;24.64;94917.63;5050026;28;20188;-63
2022/08/28 10:28:13;;;;;;;3.63;1.27;;;;;;;34.94;24.84;94924.59;5029267;28;20225;-63
2022/08/28 10:30:52;;;;;;;1.33;1.23;;;;;;;35.14;25.42;94922.75;5055006;28;20199;-63
2022/08/28 10:33:39;;;;;;;3.07;2.30;;;;;;;35.39;25.03;94919.66;5036051;28;20274;-65
2022/08/28 10:36:13;;;;;;;1.83;1.73;;;;;;;35.50;24.75;94921.06;5061665;28;20213;-63
2022/08/28 10:39:15;;;;;;;2.30;1.80;;;;;;;35.62;24.22;94919.72;5049679;28;20212;-64
2022/08/28 10:41:47;;;;;;;0.60;0.60;;;;;;;35.73;24.07;94917.56;5047686;28;20200;-64
2022/08/28 10:44:23;;;;;;;1.27;1.17;;;;;;;36.10;23.63;94922.00;5047900;28;20239;-64
2022/08/28 10:46:54;;;;;;;0.70;0.70;;;;;;;36.01;23.90;94917.09;5028202;28;20228;-63
2022/08/28 10:49:33;;;;;;;0.67;0.63;;;;;;;36.10;23.07;94909.13;5041396;28;20192;-63
2022/08/28 10:52:09;;;;;;;0.47;0.43;;;;;;;36.01;22.68;94914.38;5028558;28;20200;-62
2022/08/28 10:54:49;;;;;;;1.43;1.33;;;;;;;36.01;22.53;94911.63;5055227;28;20211;-65
2022/08/28 10:57:33;;;;;;;0.73;0.60;;;;;;;36.40;22.65;94911.72;5025619;28;20206;-63
2022/08/28 11:00:12;;;;;;;1.47;1.37;;;;;;;36.49;22.39;94908.41;5041145;28;20286;-63
2022/08/28 11:03:07;;;;;;;0.60;0.60;;;;;;;36.08;20.69;94911.50;5028452;28;20216;-64
2022/08/28 11:06:04;;;;;;;0.50;0.50;;;;;;;36.06;22.07;94902.22;5046837;28;20195;-64
2022/08/28 11:08:35;;;;;;;1.20;1.10;;;;;;;36.39;21.13;94910.16;5034756;28;20197;-63
2022/08/28 11:11:05;;;;;;;0.80;0.80;;;;;;;36.56;19.79;94902.81;5027223;28;20214;-64
2022/08/28 11:13:55;;;;;;;3.30;0.70;;;;;;;36.55;19.89;94907.50;5053834;28;20286;-63
2022/08/28 11:16:28;;;;;;;0.40;0.40;;;;;;;36.45;20.51;94902.25;5060985;28;20203;-62
2022/08/28 11:19:35;;;;;;;0.70;0.70;;;;;;;36.68;19.52;94893.22;5031521;28;20228;-64
2022/08/28 11:22:18;;;;;;;0.83;0.83;;;;;;;37.05;21.17;94895.53;5051952;28;20257;-64
2022/08/28 11:25:12;;;;;;;1.07;1.07;;;;;;;36.26;22.23;94901.03;5027997;28;20254;-63
2022/08/28 11:27:39;;;;;;;0.50;0.50;;;;;;;36.78;21.35;94887.50;5051697;28;20229;-64
2022/08/28 11:30:13;;;;;;;0.70;0.70;;;;;;;36.70;21.03;94891.56;5029942;28;20200;-65
2022/08/28 11:32:47;;;;;;;6.63;2.07;;;;;;;36.64;20.04;94888.56;5056130;28;20199;-64
2022/08/28 11:35:19;;;;;;;0.93;0.93;;;;;;;36.95;20.33;94880.94;5060973;28;20196;-65
2022/08/28 11:37:48;;;;;;;1.93;1.53;;;;;;;37.02;20.74;94878.03;5041967;28;20291;-64
2022/08/28 11:40:30;;;;;;;0.67;0.60;;;;;;;37.52;20.39;94874.91;5019651;28;20189;-63
2022/08/28 11:43:33;;;;;;;1.17;1.00;;;;;;;37.47;20.15;94878.16;5022746;28;20232;-63
2022/08/28 11:45:59;;;;;;;2.50;1.70;;;;;;;37.15;20.23;94864.47;5040566;28;20207;-63
2022/08/28 11:48:34;;;;;;;2.57;2.13;;;;;;;37.63;19.81;94872.66;5040343;28;20228;-65
2022/08/28 11:51:09;;;;;;;0.83;0.83;;;;;;;37.56;19.62;94872.84;5029001;28;20230;-63
2022/08/28 11:53:45;;;;;;;1.13;1.00;;;;;;;37.78;19.58;94860.22;5054036;28;20257;-62
2022/08/28 11:56:30;;;;;;;1.20;1.10;;;;;;;37.58;19.48;94871.25;5030232;28;20228;-63
2022/08/28 11:59:03;;;;;;;1.57;1.40;;;;;;;37.51;21.01;94865.94;5038244;28;20208;-63
2022/08/28 12:01:36;;;;;;;1.27;1.17;;;;;;;37.60;19.82;94854.41;5067171;28;20214;-63
2022/08/28 12:04:07;;;;;;;0.80;0.80;;;;;;;37.57;20.01;94860.72;5055387;28;20196;-63